Time;durP1;ratioP1;P1;durP2;ratioP2;P2;SDS_P1;SDS_P2;PMS_P1;PMS_P2;Temp;Humidity;BMP_temperature;BMP_pressure;BME280_temperature;BME280_humidity;BME280_pressure;Samples;Min_cycle;Max_cycle;Signal;HPM_P1;HPM_P2
2023/01/16 00:01:26;;;;;;;3.90;2.03;;;;;;;4.23;100.00;99603.41;6158858;23;20014;-74
2023/01/16 00:03:53;;;;;;;3.65;1.95;;;;;;;4.23;100.00;99600.03;6158789;23;20413;-75
2023/01/16 00:06:20;;;;;;;3.38;1.92;;;;;;;4.22;100.00;99604.56;6158963;23;20486;-75
2023/01/16 00:08:48;;;;;;;2.20;2.00;;;;;;;4.21;100.00;99599.72;6158865;23;20049;-75
2023/01/16 00:11:15;;;;;;;3.05;2.65;;;;;;;4.18;100.00;99590.75;6159081;23;20014;-74
2023/01/16 00:13:41;;;;;;;4.75;2.33;;;;;;;4.14;100.00;99582.22;6159167;23;20021;-74
2023/01/16 00:16:08;;;;;;;2.95;2.33;;;;;;;4.11;100.00;99580.44;6132420;23;20018;-75
2023/01/16 00:18:35;;;;;;;4.88;2.25;;;;;;;4.08;100.00;99559.47;6158876;23;20459;-75
2023/01/16 00:21:01;;;;;;;3.45;2.25;;;;;;;4.05;100.00;99568.97;6158905;23;20073;-75
2023/01/16 00:23:28;;;;;;;5.25;2.45;;;;;;;4.02;100.00;99565.28;6158330;23;20021;-75
2023/01/16 00:25:55;;;;;;;4.13;2.42;;;;;;;4.00;100.00;99564.22;6159099;23;20022;-75
2023/01/16 00:28:21;;;;;;;4.82;2.35;;;;;;;3.96;100.00;99559.09;6158993;23;20093;-75
2023/01/16 00:30:48;;;;;;;3.42;2.47;;;;;;;3.97;100.00;99552.66;6159315;23;20074;-75
2023/01/16 00:33:15;;;;;;;2.88;2.47;;;;;;;3.93;100.00;99546.75;6158694;23;20013;-75
2023/01/16 00:35:41;;;;;;;4.60;2.53;;;;;;;3.90;100.00;99544.22;6159630;23;20041;-75
2023/01/16 00:38:08;;;;;;;3.95;3.10;;;;;;;3.84;100.00;99533.50;6132533;23;20025;-74
2023/01/16 00:40:35;;;;;;;3.97;3.00;;;;;;;3.82;100.00;99516.63;6160809;23;20045;-75
2023/01/16 00:43:01;;;;;;;3.47;3.00;;;;;;;3.82;100.00;99524.53;6159312;23;20047;-75
2023/01/16 00:45:28;;;;;;;4.95;2.78;;;;;;;3.83;100.00;99524.13;6158613;23;20018;-75
2023/01/16 00:47:55;;;;;;;3.00;2.80;;;;;;;3.83;100.00;99518.84;6158759;23;20049;-75
2023/01/16 00:50:21;;;;;;;4.18;2.80;;;;;;;3.83;100.00;99518.09;6132508;23;20470;-75
2023/01/16 00:52:48;;;;;;;3.50;3.17;;;;;;;3.83;100.00;99500.41;6158441;23;20435;-75
2023/01/16 00:55:14;;;;;;;6.03;3.42;;;;;;;3.85;100.00;99498.09;6158726;23;20444;-75
2023/01/16 00:57:41;;;;;;;4.70;3.80;;;;;;;3.86;100.00;99490.94;6159058;23;20019;-75
2023/01/16 01:00:09;;;;;;;4.10;3.70;;;;;;;3.87;100.00;99489.78;6131661;23;20020;-75
2023/01/16 01:02:35;;;;;;;4.30;3.75;;;;;;;3.89;100.00;99496.09;6158936;23;20013;-75
2023/01/16 01:05:02;;;;;;;5.95;4.60;;;;;;;3.90;100.00;99488.94;6157027;23;20024;-75
2023/01/16 01:07:28;;;;;;;4.90;4.47;;;;;;;3.90;100.00;99488.94;6158078;23;20428;-75
2023/01/16 01:09:55;;;;;;;4.82;4.50;;;;;;;3.91;100.00;99471.97;6159210;23;20356;-75
2023/01/16 01:12:21;;;;;;;5.28;4.78;;;;;;;3.90;100.00;99479.13;6160009;23;20014;-76
2023/01/16 01:14:49;;;;;;;6.20;5.03;;;;;;;3.90;100.00;99479.13;6160090;23;20461;-76
2023/01/16 01:17:15;;;;;;;6.80;5.65;;;;;;;3.90;100.00;99467.88;6159927;23;20060;-75
2023/01/16 01:19:42;;;;;;;8.20;5.53;;;;;;;3.89;100.00;99461.88;6133353;23;20502;-75
2023/01/16 01:22:08;;;;;;;11.98;5.90;;;;;;;3.91;100.00;99464.09;6158856;23;20021;-75
2023/01/16 01:24:35;;;;;;;8.38;5.68;;;;;;;3.91;100.00;99466.72;6160116;23;20073;-75
2023/01/16 01:27:01;;;;;;;7.63;5.40;;;;;;;3.91;100.00;99459.56;6159734;23;20025;-75
2023/01/16 01:29:28;;;;;;;7.13;5.90;;;;;;;3.89;100.00;99455.88;6159759;23;20018;-75
2023/01/16 01:31:55;;;;;;;10.02;6.28;;;;;;;3.91;100.00;99454.28;6158034;23;20014;-75
2023/01/16 01:34:21;;;;;;;8.50;6.43;;;;;;;3.94;100.00;99452.69;6133366;23;20021;-75
2023/01/16 01:36:48;;;;;;;10.68;6.28;;;;;;;3.94;100.00;99444.81;6159599;23;20021;-76
2023/01/16 01:39:14;;;;;;;7.45;6.32;;;;;;;3.93;100.00;99445.97;6159738;23;20089;-76
2023/01/16 01:41:41;;;;;;;13.35;7.40;;;;;;;3.93;100.00;99435.44;6158499;23;20029;-76
2023/01/16 01:44:41;;;;;;;14.95;6.72;;;;;;;3.92;100.00;99431.31;6159288;23;20435;-76
2023/01/16 01:47:08;;;;;;;10.15;7.10;;;;;;;3.91;100.00;99419.31;6132502;23;20523;-76
2023/01/16 01:49:36;;;;;;;15.38;7.60;;;;;;;3.89;100.00;99417.13;6159445;23;20065;-76
2023/01/16 01:52:05;;;;;;;15.38;7.38;;;;;;;3.88;100.00;99413.00;6133142;23;20018;-76
2023/01/16 01:54:40;;;;;;;12.75;7.38;;;;;;;3.87;100.00;99406.28;6159990;23;20029;-76
2023/01/16 01:57:12;;;;;;;11.38;6.97;;;;;;;3.86;100.00;99396.91;6159163;23;20041;-76
2023/01/16 01:59:46;;;;;;;12.93;6.40;;;;;;;3.86;100.00;99409.31;6160159;23;20022;-76
2023/01/16 02:02:18;;;;;;;7.30;6.60;;;;;;;3.88;100.00;99407.00;6159327;23;20069;-75
2023/01/16 02:04:47;;;;;;;10.25;6.63;;;;;;;3.86;100.00;99401.44;6159508;23;20021;-75
2023/01/16 02:07:17;;;;;;;7.15;6.18;;;;;;;3.86;100.00;99398.78;6133762;23;20022;-76
2023/01/16 02:09:43;;;;;;;9.13;6.82;;;;;;;3.85;100.00;99386.78;6156977;23;20014;-76
2023/01/16 02:12:12;;;;;;;6.63;5.20;;;;;;;3.83;100.00;99378.59;6130857;23;20017;-75
2023/01/16 02:14:42;;;;;;;11.27;5.38;;;;;;;3.82;100.00;99379.75;6157987;23;20025;-76
2023/01/16 02:20:03;;;;;;;7.82;4.97;;;;;;;3.71;100.00;99368.81;6157043;23;20021;-75
2023/01/16 02:23:03;;;;;;;6.03;5.32;;;;;;;3.68;100.00;99362.50;6159981;23;20496;-75
2023/01/16 02:26:01;;;;;;;11.40;5.50;;;;;;;3.62;100.00;99351.03;6159941;23;20018;-75
2023/01/16 02:28:39;;;;;;;9.57;5.40;;;;;;;3.58;100.00;99348.53;6159441;23;20471;-75
2023/01/16 02:31:08;;;;;;;8.50;5.22;;;;;;;3.58;100.00;99345.19;6159301;23;20385;-76
2023/01/16 02:34:11;;;;;;;5.03;4.25;;;;;;;3.60;100.00;99350.72;6159206;23;20018;-76
2023/01/16 02:37:16;;;;;;;4.40;4.00;;;;;;;3.60;100.00;99342.84;6160010;23;20018;-76
2023/01/16 02:40:01;;;;;;;4.65;4.18;;;;;;;3.59;100.00;99341.38;6068683;23;20025;-75
2023/01/16 02:42:39;;;;;;;5.35;2.83;;;;;;;3.58;100.00;99330.13;6068481;23;20445;-75
2023/01/16 02:45:18;;;;;;;6.40;3.28;;;;;;;3.56;100.00;99334.34;6067910;23;20094;-75
2023/01/16 02:47:53;;;;;;;8.52;3.58;;;;;;;3.56;100.00;99332.44;6068469;23;20038;-77
2023/01/16 02:50:51;;;;;;;4.07;2.92;;;;;;;3.52;100.00;99320.56;6068555;23;20353;-76
2023/01/16 02:53:43;;;;;;;3.38;2.90;;;;;;;3.45;100.00;99318.16;6068930;23;20055;-76
2023/01/16 02:56:15;;;;;;;7.65;3.08;;;;;;;3.41;100.00;99307.00;6067355;23;20057;-76
2023/01/16 02:58:45;;;;;;;3.70;2.75;;;;;;;3.37;100.00;99299.22;6069094;23;20031;-76
2023/01/16 03:01:12;;;;;;;10.23;2.80;;;;;;;3.38;100.00;99307.84;6068289;23;20027;-76
2023/01/16 03:03:59;;;;;;;7.30;2.65;;;;;;;3.35;100.00;99293.66;6068338;23;20023;-76
2023/01/16 03:06:44;;;;;;;5.30;2.58;;;;;;;3.34;100.00;99289.56;6044047;23;20453;-75
2023/01/16 03:09:23;;;;;;;3.30;2.15;;;;;;;3.31;100.00;99285.13;6067826;23;20027;-75
2023/01/16 03:12:08;;;;;;;5.68;2.67;;;;;;;3.31;100.00;99266.72;6068556;23;20509;-75
2023/01/16 03:14:48;;;;;;;5.82;2.08;;;;;;;3.29;100.00;99259.25;6068904;23;20038;-76
2023/01/16 03:17:37;;;;;;;3.90;2.40;;;;;;;3.25;100.00;99245.47;6138921;23;20073;-75
2023/01/16 03:20:12;;;;;;;7.05;2.47;;;;;;;3.23;100.00;99242.53;6159113;23;20049;-75
2023/01/16 03:22:50;;;;;;;2.33;2.03;;;;;;;3.21;100.00;99234.34;6159827;23;20041;-75
2023/01/16 03:25:55;;;;;;;4.63;2.22;;;;;;;3.17;100.00;99225.84;6159408;23;20528;-76
2023/01/16 03:28:21;;;;;;;2.20;1.67;;;;;;;3.15;100.00;99222.91;6154391;23;20028;-76
2023/01/16 03:31:05;;;;;;;2.75;1.75;;;;;;;3.13;100.00;99213.97;6159020;23;20118;-75
2023/01/16 03:34:02;;;;;;;3.80;2.08;;;;;;;3.11;100.00;99216.28;6159086;23;20017;-77
2023/01/16 03:36:39;;;;;;;2.50;1.88;;;;;;;3.07;100.00;99207.78;6159286;23;20024;-76
2023/01/16 03:39:10;;;;;;;2.83;1.77;;;;;;;3.04;100.00;99195.47;6158739;23;20052;-76
2023/01/16 03:41:39;;;;;;;3.35;1.85;;;;;;;3.00;100.00;99201.59;6159413;23;20482;-75
2023/01/16 03:44:16;;;;;;;4.75;1.85;;;;;;;2.98;100.00;99190.75;6158394;23;20018;-75
2023/01/16 03:46:49;;;;;;;3.05;1.52;;;;;;;2.96;100.00;99194.97;6158644;23;20024;-75
2023/01/16 03:49:24;;;;;;;7.18;2.40;;;;;;;2.93;100.00;99186.03;6158835;23;20018;-75
2023/01/16 03:52:00;;;;;;;3.35;1.60;;;;;;;2.91;100.00;99179.72;6159005;23;20502;-75
2023/01/16 03:54:44;;;;;;;5.53;1.70;;;;;;;2.89;100.00;99172.28;6159066;23;20018;-75
2023/01/16 03:57:17;;;;;;;6.32;1.30;;;;;;;2.89;100.00;99168.91;6132557;23;20025;-75
2023/01/16 03:59:46;;;;;;;3.60;1.63;;;;;;;2.86;100.00;99162.59;6158532;23;20014;-75
2023/01/16 04:02:50;;;;;;;3.70;1.63;;;;;;;2.86;100.00;99149.47;6131848;23;20032;-75
2023/01/16 04:05:31;;;;;;;3.85;1.45;;;;;;;2.85;100.00;99149.88;6159021;23;20348;-74
2023/01/16 04:08:02;;;;;;;4.38;1.60;;;;;;;2.83;100.00;99141.69;6157423;23;20096;-76
2023/01/16 04:10:35;;;;;;;7.82;1.77;;;;;;;2.82;100.00;99135.69;6158926;23;20024;-76
2023/01/16 04:13:08;;;;;;;1.40;1.30;;;;;;;2.81;100.00;99128.25;6159019;23;20017;-76
2023/01/16 04:15:39;;;;;;;7.88;1.60;;;;;;;2.78;100.00;99124.59;6132524;23;20501;-76
2023/01/16 04:18:06;;;;;;;5.90;1.58;;;;;;;2.78;100.00;99115.97;6158336;23;20077;-76
2023/01/16 04:20:34;;;;;;;3.42;1.30;;;;;;;2.80;100.00;99103.16;6159151;23;20441;-76
2023/01/16 04:23:01;;;;;;;1.83;1.52;;;;;;;2.82;100.00;99096.28;6159089;23;20022;-75
2023/01/16 04:25:27;;;;;;;1.25;1.15;;;;;;;2.85;100.00;99086.81;6158749;23;20018;-76
2023/01/16 04:27:55;;;;;;;2.33;1.67;;;;;;;2.86;100.00;99080.41;6158857;23;20022;-76
2023/01/16 04:30:22;;;;;;;6.50;1.65;;;;;;;2.86;100.00;99073.25;6158257;23;20102;-77
2023/01/16 04:32:48;;;;;;;2.00;1.48;;;;;;;2.87;100.00;99066.09;6159014;23;20022;-75
2023/01/16 04:35:15;;;;;;;2.05;1.20;;;;;;;2.87;100.00;99056.31;6160531;23;20462;-76
2023/01/16 04:37:42;;;;;;;3.85;1.70;;;;;;;2.90;100.00;99052.09;6158547;23;20028;-76
2023/01/16 04:40:09;;;;;;;2.35;1.60;;;;;;;2.91;100.00;99041.16;6159629;23;20014;-76
2023/01/16 04:42:35;;;;;;;2.30;1.27;;;;;;;2.91;100.00;99035.16;6159840;23;20022;-76
2023/01/16 04:45:03;;;;;;;5.82;1.33;;;;;;;2.90;100.00;99020.56;6132022;23;20451;-76
2023/01/16 04:47:30;;;;;;;8.93;1.60;;;;;;;2.90;100.00;99013.41;6159289;23;20018;-75
2023/01/16 04:49:56;;;;;;;1.70;1.17;;;;;;;2.88;100.00;99007.09;6159220;23;20015;-76
2023/01/16 04:52:23;;;;;;;5.60;1.60;;;;;;;2.85;100.00;98992.94;6157528;23;20025;-76
2023/01/16 04:54:49;;;;;;;2.95;1.70;;;;;;;2.85;100.00;98989.56;6132759;23;20085;-76
2023/01/16 04:57:16;;;;;;;3.58;1.60;;;;;;;2.82;100.00;98985.91;6159031;23;20022;-75
2023/01/16 04:59:42;;;;;;;2.05;1.40;;;;;;;2.78;100.00;98974.06;6158231;23;20014;-75
2023/01/16 05:02:09;;;;;;;3.30;1.85;;;;;;;2.75;100.00;98967.78;6132070;23;20022;-75
2023/01/16 05:04:39;;;;;;;6.40;1.70;;;;;;;2.74;100.00;98953.16;6159051;23;20506;-75
2023/01/16 05:07:05;;;;;;;4.38;1.38;;;;;;;2.72;100.00;98944.97;6131794;23;20459;-75
2023/01/16 05:09:32;;;;;;;7.35;1.50;;;;;;;2.70;100.00;98938.69;6158845;23;20022;-75
2023/01/16 05:11:58;;;;;;;4.82;1.10;;;;;;;2.67;100.00;98933.13;6158352;23;20023;-75
2023/01/16 05:14:25;;;;;;;2.80;1.80;;;;;;;2.67;100.00;98929.75;6157792;23;20018;-75
2023/01/16 05:16:51;;;;;;;4.03;1.67;;;;;;;2.66;100.00;98930.94;6158214;23;20018;-75
2023/01/16 05:19:18;;;;;;;6.72;1.75;;;;;;;2.65;100.00;98918.94;6157488;23;20472;-75
2023/01/16 05:21:44;;;;;;;4.80;1.67;;;;;;;2.65;100.00;98911.06;6158702;23;20057;-75
2023/01/16 05:24:11;;;;;;;5.88;1.90;;;;;;;2.63;100.00;98905.50;6157858;23;20018;-75
2023/01/16 05:26:37;;;;;;;9.20;2.00;;;;;;;2.63;100.00;98908.13;6158688;23;20553;-75
2023/01/16 05:29:04;;;;;;;3.22;1.67;;;;;;;2.62;100.00;98902.16;6157623;23;20017;-75
2023/01/16 05:31:30;;;;;;;2.72;1.83;;;;;;;2.62;100.00;98894.25;6158768;23;20022;-75
2023/01/16 05:33:57;;;;;;;2.45;1.58;;;;;;;2.59;100.00;98883.88;6158272;23;20048;-75
2023/01/16 05:36:23;;;;;;;7.45;2.28;;;;;;;2.61;100.00;98881.56;6158320;23;20099;-75
2023/01/16 05:38:50;;;;;;;4.32;1.80;;;;;;;2.60;100.00;98862.44;6158287;23;20014;-75
2023/01/16 05:41:17;;;;;;;3.35;2.00;;;;;;;2.61;100.00;98857.91;6157663;23;20022;-75
2023/01/16 05:43:43;;;;;;;3.97;1.83;;;;;;;2.61;100.00;98850.03;6158739;23;20045;-75
2023/01/16 05:46:10;;;;;;;6.35;1.90;;;;;;;2.60;100.00;98838.78;6158030;23;20014;-75
2023/01/16 05:48:38;;;;;;;3.40;1.70;;;;;;;2.61;100.00;98837.63;6132214;23;20102;-75
2023/01/16 05:51:05;;;;;;;7.13;1.80;;;;;;;2.61;100.00;98815.88;6157982;23;20097;-75
2023/01/16 05:53:31;;;;;;;1.90;1.80;;;;;;;2.64;100.00;98809.75;6158567;23;20014;-76
2023/01/16 05:55:58;;;;;;;8.73;2.20;;;;;;;2.65;100.00;98793.56;6158360;23;20025;-76
2023/01/16 05:58:25;;;;;;;4.72;2.33;;;;;;;2.68;100.00;98787.47;6159329;23;20046;-75
2023/01/16 06:00:52;;;;;;;2.75;1.67;;;;;;;2.71;100.00;98774.63;6159483;23;20029;-77
2023/01/16 06:03:18;;;;;;;4.82;1.95;;;;;;;2.73;100.00;98762.50;6159512;23;20018;-75
2023/01/16 06:05:45;;;;;;;3.90;1.85;;;;;;;2.75;100.00;98760.19;6158409;23;20048;-74
2023/01/16 06:08:11;;;;;;;4.20;1.60;;;;;;;2.77;100.00;98749.97;6160314;23;20022;-75
2023/01/16 06:10:38;;;;;;;5.10;1.58;;;;;;;2.80;100.00;98737.88;6160144;23;20018;-75
2023/01/16 06:13:04;;;;;;;3.13;1.83;;;;;;;2.82;100.00;98728.34;6160261;23;20046;-75
2023/01/16 06:15:31;;;;;;;3.95;1.90;;;;;;;2.84;100.00;98720.78;6158832;23;20048;-78
2023/01/16 06:17:57;;;;;;;2.88;1.63;;;;;;;2.87;100.00;98711.28;6159459;23;20061;-76
2023/01/16 06:20:24;;;;;;;9.40;1.80;;;;;;;2.91;100.00;98709.25;6160624;23;20018;-75
2023/01/16 06:22:50;;;;;;;1.42;1.23;;;;;;;2.93;100.00;98702.41;6160228;23;20014;-75
2023/01/16 06:25:17;;;;;;;3.38;1.40;;;;;;;2.96;100.00;98700.78;6133543;23;20018;-76
2023/01/16 06:27:48;;;;;;;4.15;1.27;;;;;;;2.99;100.00;98689.41;6160343;23;20018;-76
2023/01/16 06:30:15;;;;;;;4.63;1.60;;;;;;;3.02;100.00;98693.78;6160662;23;20029;-77
2023/01/16 06:32:42;;;;;;;3.65;1.52;;;;;;;3.04;100.00;98683.56;6160099;23;20017;-77
2023/01/16 06:35:09;;;;;;;3.40;1.88;;;;;;;3.06;100.00;98681.25;6109419;23;20022;-76
2023/01/16 06:37:35;;;;;;;2.28;1.50;;;;;;;3.09;100.00;98677.00;6160713;23;20042;-75
2023/01/16 06:40:02;;;;;;;8.60;1.73;;;;;;;3.11;100.00;98672.78;6159500;23;20026;-74
2023/01/16 06:42:28;;;;;;;1.55;1.27;;;;;;;3.12;100.00;98670.88;6160461;23;20014;-76
2023/01/16 06:44:55;;;;;;;1.88;1.35;;;;;;;3.13;100.00;98669.72;6133506;23;20014;-75
2023/01/16 06:47:22;;;;;;;4.68;1.45;;;;;;;3.13;100.00;98664.44;6160245;23;20360;-74
2023/01/16 06:49:48;;;;;;;2.35;1.58;;;;;;;3.14;100.00;98660.66;6158127;23;20078;-74
2023/01/16 06:52:15;;;;;;;3.95;1.70;;;;;;;3.14;100.00;98660.66;6160149;23;20377;-76
2023/01/16 06:54:41;;;;;;;1.83;1.52;;;;;;;3.15;100.00;98656.84;6159573;23;20424;-76
2023/01/16 06:57:08;;;;;;;4.20;1.70;;;;;;;3.15;100.00;98648.97;6158046;23;20022;-75
2023/01/16 06:59:34;;;;;;;6.25;1.40;;;;;;;3.14;100.00;98650.88;6160077;23;20077;-76
2023/01/16 07:02:00;;;;;;;3.83;1.27;;;;;;;3.14;100.00;98653.50;6159982;23;20598;-75
2023/01/16 07:04:27;;;;;;;2.55;1.40;;;;;;;3.15;100.00;98643.72;6160232;23;20018;-75
2023/01/16 07:06:54;;;;;;;6.50;1.35;;;;;;;3.15;100.00;98633.94;6159123;23;20014;-76
2023/01/16 07:09:28;;;;;;;3.97;1.50;;;;;;;3.15;100.00;98631.28;6159545;23;20037;-76
2023/01/16 07:11:54;;;;;;;3.95;1.42;;;;;;;3.15;100.00;98620.78;6159989;23;20018;-76
2023/01/16 07:22:40;;;;;;;3.97;1.25;;;;;;;3.14;100.00;98590.41;6160424;23;20018;-76
2023/01/16 07:25:21;;;;;;;6.55;1.35;;;;;;;3.16;100.00;98580.19;6159212;23;20014;-77
2023/01/16 07:27:51;;;;;;;6.40;1.50;;;;;;;3.16;100.00;98572.28;6160043;23;20018;-77
2023/01/16 07:30:20;;;;;;;3.57;1.40;;;;;;;3.16;100.00;98567.03;6159720;23;20053;-77
2023/01/16 07:32:47;;;;;;;4.20;1.60;;;;;;;3.16;100.00;98561.03;6159915;23;20436;-77
2023/01/16 07:35:15;;;;;;;2.38;1.17;;;;;;;3.16;100.00;98551.25;6160192;23;20017;-76
2023/01/16 07:37:42;;;;;;;3.95;1.40;;;;;;;3.17;100.00;98544.81;6159587;23;20069;-76
2023/01/16 07:40:10;;;;;;;1.85;0.82;;;;;;;3.16;100.00;98534.75;6159676;23;20488;-76
2023/01/16 07:42:36;;;;;;;3.65;1.65;;;;;;;3.16;100.00;98529.50;6133919;23;20355;-75
2023/01/16 07:45:03;;;;;;;4.40;1.38;;;;;;;3.16;100.00;98521.59;6159619;23;20423;-75
2023/01/16 07:47:30;;;;;;;2.85;1.40;;;;;;;3.17;100.00;98509.91;6158137;23;20482;-75
2023/01/16 07:49:58;;;;;;;3.65;1.35;;;;;;;3.15;100.00;98510.34;6159776;23;20457;-75
2023/01/16 07:52:25;;;;;;;2.15;1.52;;;;;;;3.16;100.00;98492.69;6159718;23;20054;-76
2023/01/16 07:54:51;;;;;;;1.25;1.15;;;;;;;3.15;100.00;98488.59;6133236;23;20515;-75
2023/01/16 07:57:18;;;;;;;3.53;1.52;;;;;;;3.14;100.00;98482.59;6159976;23;20018;-75
2023/01/16 07:59:44;;;;;;;3.92;2.03;;;;;;;3.12;100.00;98458.66;6160083;23;20022;-74
2023/01/16 08:02:11;;;;;;;1.55;1.45;;;;;;;3.11;100.00;98459.09;6133767;23;20014;-75
2023/01/16 08:04:37;;;;;;;2.15;1.30;;;;;;;3.09;100.00;98445.66;6160103;23;20014;-75
2023/01/16 08:07:04;;;;;;;4.47;1.40;;;;;;;3.09;100.00;98446.41;6158837;23;20014;-75
2023/01/16 08:09:30;;;;;;;1.30;1.20;;;;;;;3.06;100.00;98433.41;6133534;23;20022;-75
2023/01/16 08:11:57;;;;;;;1.33;1.20;;;;;;;3.06;100.00;98436.03;6133149;23;20022;-74
2023/01/16 08:14:23;;;;;;;1.48;1.38;;;;;;;3.07;100.00;98426.97;6158209;23;20042;-75
2023/01/16 08:16:50;;;;;;;1.20;1.10;;;;;;;3.07;100.00;98416.47;6159355;23;20510;-75
2023/01/16 08:19:16;;;;;;;2.10;1.63;;;;;;;3.09;100.00;98398.34;6133274;23;20022;-76
2023/01/16 08:21:43;;;;;;;3.25;1.73;;;;;;;3.09;100.00;98379.94;6159528;23;20474;-75
2023/01/16 08:24:12;;;;;;;5.93;1.80;;;;;;;3.11;100.00;98380.22;6159772;23;20448;-76
2023/01/16 08:26:39;;;;;;;2.47;1.50;;;;;;;3.11;100.00;98388.84;6160106;23;20436;-76
2023/01/16 08:29:06;;;;;;;3.63;1.67;;;;;;;3.11;100.00;98372.34;6159518;23;20028;-76
2023/01/16 08:31:33;;;;;;;3.30;1.50;;;;;;;3.11;100.00;98365.19;6160971;23;20014;-75
2023/01/16 08:34:00;;;;;;;2.35;1.95;;;;;;;3.12;100.00;98355.41;6161246;23;20021;-76
2023/01/16 08:36:26;;;;;;;4.30;2.33;;;;;;;3.11;100.00;98348.69;6160880;23;20094;-76
2023/01/16 08:38:53;;;;;;;2.20;1.88;;;;;;;3.13;100.00;98335.81;6159522;23;20093;-76
2023/01/16 08:52:30;;;;;;;4.07;1.35;;;;;;;3.19;100.00;98321.63;6160051;23;20022;-76
2023/01/16 08:54:57;;;;;;;2.55;1.33;;;;;;;3.20;100.00;98320.44;6159261;23;20040;-76
2023/01/16 08:57:25;;;;;;;2.20;1.42;;;;;;;3.22;100.00;98312.09;6159358;23;20097;-76
2023/01/16 08:59:52;;;;;;;2.65;1.58;;;;;;;3.22;100.00;98299.66;6159193;23;20413;-77
2023/01/16 09:02:19;;;;;;;3.47;1.45;;;;;;;3.24;100.00;98289.44;6159609;23;20427;-77
2023/01/16 09:04:47;;;;;;;4.68;1.70;;;;;;;3.28;100.00;98294.53;6158903;23;20412;-76
2023/01/16 09:07:15;;;;;;;2.75;1.65;;;;;;;3.29;100.00;98293.34;6159598;23;20014;-77
2023/01/16 09:09:42;;;;;;;2.88;1.30;;;;;;;3.30;100.00;98284.28;6159282;23;20022;-76
2023/01/16 09:14:56;;;;;;;3.25;1.67;;;;;;;3.34;100.00;98264.53;6159199;23;20397;-77
2023/01/16 09:17:24;;;;;;;1.42;1.30;;;;;;;3.36;100.00;98245.69;6158992;23;20024;-77
2023/01/16 09:19:51;;;;;;;1.67;1.58;;;;;;;3.36;100.00;98248.31;6157902;23;20066;-77
2023/01/16 09:22:18;;;;;;;3.78;1.80;;;;;;;3.38;100.00;98232.81;6159090;23;20014;-77
2023/01/16 09:24:45;;;;;;;2.92;1.70;;;;;;;3.40;100.00;98227.81;6159598;23;20448;-77
2023/01/16 09:27:13;;;;;;;1.67;1.58;;;;;;;3.41;100.00;98224.03;6157150;23;20057;-77
2023/01/16 09:29:41;;;;;;;1.90;1.77;;;;;;;3.44;100.00;98225.75;6159111;23;20448;-77
2023/01/16 09:32:08;;;;;;;3.28;1.60;;;;;;;3.48;100.00;98228.22;6159911;23;20014;-76
2023/01/16 09:34:36;;;;;;;3.22;1.60;;;;;;;3.49;100.00;98230.38;6159926;23;20014;-77
2023/01/16 09:37:04;;;;;;;2.53;1.85;;;;;;;3.50;100.00;98221.31;6160076;23;20040;-77
2023/01/16 09:39:31;;;;;;;3.05;2.10;;;;;;;3.51;100.00;98214.88;6109384;23;20022;-76
2023/01/16 09:45:19;;;;;;;2.42;2.05;;;;;;;3.56;100.00;98200.38;6140543;23;20536;-77
2023/01/16 09:47:49;;;;;;;3.17;1.88;;;;;;;3.57;100.00;98197.28;6159830;23;20010;-76
2023/01/16 09:50:40;;;;;;;3.53;1.90;;;;;;;3.58;100.00;98196.13;6158618;23;20360;-76
2023/01/16 09:59:18;;;;;;;2.95;1.83;;;;;;;3.65;100.00;98187.13;6160425;23;20023;-78
2023/01/16 10:01:52;;;;;;;2.28;1.58;;;;;;;3.65;100.00;98185.22;6133835;23;20026;-78
2023/01/16 10:04:22;;;;;;;1.90;1.50;;;;;;;3.70;100.00;98175.97;6158001;23;20025;-76
2023/01/16 10:06:56;;;;;;;1.60;1.50;;;;;;;3.73;100.00;98185.59;6158432;23;20093;-76
2023/01/16 10:09:34;;;;;;;2.85;1.65;;;;;;;3.75;100.00;98174.59;6134267;23;20041;-76
2023/01/16 10:12:06;;;;;;;4.82;1.50;;;;;;;3.77;100.00;98167.72;6159959;23;20448;-76
2023/01/16 10:14:55;;;;;;;3.03;1.30;;;;;;;3.78;100.00;98160.53;6160202;23;20013;-76
2023/01/16 10:18:05;;;;;;;0.95;0.93;;;;;;;3.78;100.00;98165.81;6133349;23;20021;-76
2023/01/16 10:20:50;;;;;;;2.95;1.55;;;;;;;3.79;100.00;98151.47;6154383;23;20480;-76
2023/01/16 10:23:49;;;;;;;3.03;1.60;;;;;;;3.78;100.00;98145.47;6158729;23;20058;-75
2023/01/16 10:26:38;;;;;;;1.42;1.30;;;;;;;3.78;100.00;98145.47;6160307;23;20400;-75
2023/01/16 10:29:28;;;;;;;3.17;1.30;;;;;;;3.79;100.00;98143.56;6159615;23;20329;-75
2023/01/16 10:32:19;;;;;;;1.08;1.08;;;;;;;3.79;100.00;98135.69;6159358;23;20029;-74
2023/01/16 10:35:05;;;;;;;1.07;1.00;;;;;;;3.78;100.00;98136.84;6160435;23;20074;-76
2023/01/16 10:37:34;;;;;;;1.15;1.05;;;;;;;3.77;100.00;98122.97;6160340;23;20353;-76
2023/01/16 10:40:13;;;;;;;0.80;0.80;;;;;;;3.77;100.00;98124.88;6159647;23;20025;-74
2023/01/16 10:51:06;;;;;;;0.80;0.80;;;;;;;3.71;100.00;98105.66;6159569;23;20459;-74
2023/01/16 10:53:35;;;;;;;1.48;0.88;;;;;;;3.72;100.00;98102.56;6159961;23;20018;-74
2023/01/16 10:56:03;;;;;;;0.70;0.70;;;;;;;3.73;100.00;98093.47;6159519;23;20018;-75
2023/01/16 10:58:36;;;;;;;2.00;0.83;;;;;;;3.74;100.00;98096.84;6159908;23;20467;-74
2023/01/16 11:01:15;;;;;;;0.80;0.80;;;;;;;3.75;100.00;98085.13;6159027;23;20058;-73
2023/01/16 11:03:44;;;;;;;3.60;1.10;;;;;;;3.75;100.00;98083.22;6159827;23;20044;-73
2023/01/16 11:06:21;;;;;;;1.13;1.00;;;;;;;3.75;100.00;98080.59;6132947;23;20026;-74
2023/01/16 11:08:53;;;;;;;1.08;0.90;;;;;;;3.76;100.00;98074.16;6159749;23;20017;-73
2023/01/16 11:20:28;;;;;;;0.77;0.77;;;;;;;3.77;100.00;98043.31;6159667;23;20013;-74
2023/01/16 11:23:14;;;;;;;0.90;0.90;;;;;;;3.77;100.00;98035.41;6159740;23;20479;-74
2023/01/16 11:25:42;;;;;;;1.30;1.20;;;;;;;3.80;100.00;98029.22;6159992;23;20090;-73
2023/01/16 11:28:18;;;;;;;1.33;1.23;;;;;;;3.80;100.00;98021.34;6159500;23;20018;-74
2023/01/16 11:30:47;;;;;;;3.22;1.02;;;;;;;3.84;100.00;98019.25;6159420;23;20022;-73
2023/01/16 11:33:22;;;;;;;1.20;1.08;;;;;;;3.87;100.00;98013.06;6160041;23;20049;-74
2023/01/16 11:35:58;;;;;;;1.38;1.27;;;;;;;3.91;100.00;98011.69;6159555;23;20018;-74
2023/01/16 11:38:27;;;;;;;1.70;1.10;;;;;;;3.97;100.00;97995.97;6160089;23;20356;-74
2023/01/16 11:40:59;;;;;;;1.30;0.90;;;;;;;4.02;100.00;97987.38;6159501;23;20436;-75
2023/01/16 11:46:40;;;;;;;1.70;1.00;;;;;;;4.28;100.00;97980.28;6159669;23;20014;-75
2023/01/16 11:49:18;;;;;;;1.35;1.10;;;;;;;4.51;100.00;97985.78;6159466;23;20531;-75
2023/01/16 11:51:51;;;;;;;1.00;0.90;;;;;;;4.66;100.00;97976.59;6159573;23;20014;-75
2023/01/16 11:54:22;;;;;;;0.95;0.95;;;;;;;4.77;100.00;97972.63;6158992;23;20470;-75
2023/01/16 11:57:15;;;;;;;1.38;0.93;;;;;;;4.84;100.00;97967.63;6159104;23;20069;-74
2023/01/16 12:00:07;;;;;;;3.58;1.00;;;;;;;4.85;100.00;97961.16;6158994;23;20021;-73
2023/01/16 12:02:51;;;;;;;0.80;0.80;;;;;;;4.84;100.00;97951.81;6159542;23;20032;-72
2023/01/16 12:05:54;;;;;;;1.20;1.08;;;;;;;4.87;100.00;97944.88;6159555;23;20533;-74
2023/01/16 12:08:57;;;;;;;0.95;0.82;;;;;;;4.92;100.00;97936.31;6159607;23;20069;-74
2023/01/16 12:11:35;;;;;;;0.95;0.95;;;;;;;4.91;100.00;97935.59;6133335;23;20444;-75
2023/01/16 12:14:18;;;;;;;1.00;1.00;;;;;;;4.94;100.00;97929.38;6132319;23;20018;-75
2023/01/16 12:17:03;;;;;;;0.75;0.75;;;;;;;4.93;100.00;97921.94;6159862;23;20042;-74
2023/01/16 12:20:00;;;;;;;1.58;1.10;;;;;;;4.91;100.00;97911.13;6159162;23;20127;-74
2023/01/16 12:22:48;;;;;;;1.00;1.00;;;;;;;4.90;100.00;97904.41;6159651;23;20105;-75
2023/01/16 12:25:23;;;;;;;0.80;0.80;;;;;;;4.85;100.00;97902.47;6160035;23;20042;-74
2023/01/16 12:28:06;;;;;;;0.90;0.90;;;;;;;4.78;100.00;97903.63;6158821;23;20018;-74
2023/01/16 12:30:35;;;;;;;7.32;1.15;;;;;;;4.77;100.00;97896.19;6110327;23;20026;-74
2023/01/16 12:33:28;;;;;;;2.55;0.95;;;;;;;4.74;100.00;97899.75;6160085;23;20018;-75
2023/01/16 12:36:06;;;;;;;2.97;1.17;;;;;;;4.70;100.00;97892.06;6160062;23;20014;-75
2023/01/16 12:39:05;;;;;;;1.13;0.90;;;;;;;4.68;100.00;97881.97;6160197;23;20018;-74
2023/01/16 12:44:37;;;;;;;1.63;1.20;;;;;;;4.69;100.00;97880.06;6159767;23;20409;-75
2023/01/16 12:47:22;;;;;;;1.38;1.27;;;;;;;4.71;100.00;97879.59;6159349;23;20100;-75
2023/01/16 12:49:56;;;;;;;2.75;1.30;;;;;;;4.72;100.00;97875.78;6159302;23;20014;-75
2023/01/16 12:52:40;;;;;;;1.77;1.30;;;;;;;4.72;100.00;97871.25;6159599;23;20020;-76
2023/01/16 12:55:31;;;;;;;1.25;1.08;;;;;;;4.73;100.00;97858.78;6159184;23;20022;-75